• Join FlightAware (Why Join?)
  • Login
  • US Flag 
01:33PM EDT


 

Airport Tracker/Info


-or-


 

Live Flight TrackerFlight Track Log ✈ N509QS ✈ 18-May-2013 ✈ KBLI - KBFI

Flight Track Log - Related Links

Times and Time Zones

All times are in EDT time to prevent confusion due to time zone crossing. See the N509QS flight status page for this flight to view local times or setup timezone preferences in your user account.

Time Position Orientation Groundspeed Altitude Reporting Facility
EDT Latitude Longitude Course Direction KTS MPH feet Rate Location/Type
03:56PM 48.6667 -122.5333 179° South 220 253 6,000  Level Vancouver Center
03:57PM 48.6000 -122.5667 198° South 260 299 8,900 1,740 Climbing Vancouver Center
03:58PM 48.5333 -122.5833 189° South 280 322 9,500 960 Climbing Vancouver Center
03:59PM 48.7778 -122.5395 185° South  Level FlightAware Approximate
03:59PM 48.4500 -122.6167 195° South 290 334 10,900  Level Vancouver Center
04:00PM 48.7536 -122.5428 185° South  Level FlightAware Approximate
04:00PM 48.3500 -122.6667 198° South 320 368 11,000  Level Vancouver Center
04:01PM 48.2667 -122.7000 195° South 340 391 11,000  Level Vancouver Center
04:02PM 48.1667 -122.7500 198° South 340 391 11,000  Level Vancouver Center
04:02PM 48.1433 -122.7808 221° Southwest 343 395 11,000 -180 Level Seattle Center
04:03PM 48.0894 -122.8114 201° Southwest 338 389 10,800 -600 Descending Seattle Center
04:03PM 48.0572 -122.8281 199° South 274 315 10,400 -840 Descending Seattle Center
04:04PM 48.0150 -122.8256 178° South 291 335 10,000 -420 Descending Seattle Center
04:04PM 47.9817 -122.8000 153° Southeast 302 348 10,000  Level Seattle Center
04:05PM 47.9447 -122.7636 147° Southeast 294 338 10,000 -360 Level Seattle Center
04:05PM 47.9072 -122.7317 150° Southeast 296 341 9,600 -1,320 Descending Seattle Center
04:06PM 47.8750 -122.7006 147° Southeast 299 344 8,700 -2,280 Descending Seattle Center
04:06PM 47.8353 -122.6656 149° Southeast 284 327 7,300 -2,280 Descending Seattle Center
04:07PM 47.8114 -122.6397 144° Southeast 278 320 6,400 -2,340 Descending Seattle Center
04:07PM 47.7892 -122.5789 119° Southeast 265 305 5,000 -2,280 Descending Seattle Center
04:08PM 47.7742 -122.5367 118° Southeast 257 296 4,100 -1,680 Descending Seattle Center
04:08PM 47.7600 -122.5058 124° Southeast 234 269 3,500 -1,320 Descending Seattle Center
04:09PM 47.7294 -122.4711 143° Southeast 207 238 2,800 -1,200 Descending Seattle Center
04:09PM 47.7128 -122.4594 155° Southeast 184 212 2,300 -600 Descending Seattle Center
04:10PM 47.6853 -122.4356 150° Southeast 185 213 2,200 -120 Descending Seattle Center
04:10PM 47.6697 -122.4208 147° Southeast 156 180 2,200  Level Seattle Center
04:11PM 47.6483 -122.4042 152° Southeast 156 180 2,200 -120 Level Seattle Center
04:11PM 47.6308 -122.3894 150° Southeast 145 167 2,100 -540 Descending Seattle Center
04:12PM 47.6106 -122.3719 150° Southeast 157 181 1,700 -840 Descending Seattle Center
04:12PM 47.5972 -122.3622 154° Southeast 139 160 1,300 -720 Descending Seattle Center
04:13PM 47.5814 -122.3469 147° Southeast 123 142 1,000 -660 Descending Seattle Center
04:13PM 47.5717 -122.3400 154° Southeast 125 144 700 -720 Descending Seattle Center
04:14PM 47.5533 -122.3236 149° Southeast 117 135 300 -540 Descending Seattle Center
04:14PM 47.5481 -122.3169 140° Southeast 111 128 200 -240 Descending Seattle Center
04:15PM 47.5258 -122.2992 152° Southeast 117 135 100 -180 Descending Seattle Center
04:17PM 47.5167 -122.3000 132° Southeast  Level FlightAware Approximate